Time;durP1;ratioP1;P1;durP2;ratioP2;P2;SDS_P1;SDS_P2;PMS_P1;PMS_P2;Temp;Humidity;BMP_temperature;BMP_pressure;BME280_temperature;BME280_humidity;BME280_pressure;Samples;Min_cycle;Max_cycle;Signal;HPM_P1;HPM_P2
2022/01/31 00:00:39;;;;;;;;;;;7.10;98.20;;;;;;5027646;28;20485;-76
2022/01/31 00:03:04;;;;;;;;;;;7.20;98.30;;;;;;5009904;28;19999;-76
2022/01/31 00:05:30;;;;;;;;;;;7.20;98.30;;;;;;5009896;28;19905;-76
2022/01/31 00:07:56;;;;;;;;;;;7.30;98.20;;;;;;5031225;28;20063;-76
2022/01/31 00:10:28;;;;;;;;;;;7.40;98.10;;;;;;5031186;28;19912;-76
2022/01/31 00:13:01;;;;;;;;;;;7.50;98.10;;;;;;5031330;28;19916;-76
2022/01/31 00:15:28;;;;;;;;;;;7.60;98.00;;;;;;5031255;28;19913;-76
2022/01/31 00:17:53;;;;;;;;;;;7.60;97.90;;;;;;5013442;28;20411;-76
2022/01/31 00:20:19;;;;;;;;;;;7.70;97.80;;;;;;5031130;28;20008;-76
2022/01/31 00:22:44;;;;;;;;;;;7.60;97.50;;;;;;5030972;28;19988;-76
2022/01/31 00:25:10;;;;;;;;;;;7.50;97.40;;;;;;5031065;28;19936;-76
2022/01/31 00:27:36;;;;;;;;;;;7.40;97.40;;;;;;5030709;28;20002;-76
2022/01/31 00:30:02;;;;;;;;;;;7.30;97.40;;;;;;5031054;28;19999;-76
2022/01/31 00:32:29;;;;;;;;;;;7.30;97.40;;;;;;5031243;28;20027;-76
2022/01/31 00:34:56;;;;;;;;;;;7.20;97.40;;;;;;5030840;28;19905;-76
2022/01/31 00:37:22;;;;;;;;;;;7.10;97.50;;;;;;5030748;28;19913;-76
2022/01/31 00:39:47;;;;;;;;;;;7.10;97.50;;;;;;5013100;28;19905;-76
2022/01/31 00:42:13;;;;;;;;;;;7.00;97.50;;;;;;5030562;28;19924;-76
2022/01/31 00:44:48;;;;;;;;;;;7.00;97.60;;;;;;5030651;28;20323;-76
2022/01/31 00:47:24;;;;;;;;;;;7.00;97.50;;;;;;5030717;28;19912;-76
2022/01/31 00:50:05;;;;;;;;;;;6.90;97.50;;;;;;5030662;28;19917;-76
2022/01/31 00:52:30;;;;;;;;;;;6.90;97.60;;;;;;4998574;28;19941;-76
2022/01/31 00:54:56;;;;;;;;;;;7.00;97.70;;;;;;5030403;28;20385;-76
2022/01/31 00:57:21;;;;;;;;;;;7.00;97.70;;;;;;5030490;28;19911;-76
2022/01/31 00:59:50;;;;;;;;;;;7.00;97.60;;;;;;5012618;28;19916;-76
2022/01/31 01:02:19;;;;;;;;;;;7.00;97.50;;;;;;5030320;28;19920;-76
2022/01/31 01:04:45;;;;;;;;;;;7.00;97.50;;;;;;5012400;28;19916;-76
2022/01/31 01:07:11;;;;;;;;;;;6.90;97.50;;;;;;5030287;28;19916;-76
2022/01/31 01:09:37;;;;;;;;;;;6.90;97.50;;;;;;5030536;28;19987;-76
2022/01/31 01:12:04;;;;;;;;;;;6.80;97.60;;;;;;5030349;28;19951;-76
2022/01/31 01:14:29;;;;;;;;;;;6.80;97.60;;;;;;5030004;28;19909;-76
2022/01/31 01:16:56;;;;;;;;;;;6.80;97.60;;;;;;5012409;28;19909;-76
2022/01/31 01:19:22;;;;;;;;;;;6.80;97.70;;;;;;5030099;28;19912;-76
2022/01/31 01:21:47;;;;;;;;;;;6.70;97.70;;;;;;5029989;28;19920;-76
2022/01/31 01:24:14;;;;;;;;;;;6.70;97.70;;;;;;5029908;28;19913;-76
2022/01/31 01:26:41;;;;;;;;;;;6.70;97.80;;;;;;5029883;28;20050;-76
2022/01/31 01:29:06;;;;;;;;;;;6.70;97.90;;;;;;5012172;28;19909;-76
2022/01/31 01:31:32;;;;;;;;;;;6.70;98.00;;;;;;5030390;28;19932;-76
2022/01/31 01:33:58;;;;;;;;;;;6.90;98.00;;;;;;5029809;28;19928;-76
2022/01/31 01:36:23;;;;;;;;;;;7.00;98.00;;;;;;5029817;28;20375;-76
2022/01/31 01:38:49;;;;;;;;;;;7.00;97.80;;;;;;5029804;28;19913;-76
2022/01/31 01:41:14;;;;;;;;;;;6.90;97.70;;;;;;5029638;28;20363;-76
2022/01/31 01:43:40;;;;;;;;;;;6.90;97.60;;;;;;5029563;28;20298;-76
2022/01/31 01:46:06;;;;;;;;;;;6.70;97.60;;;;;;5029529;28;19911;-76
2022/01/31 01:48:31;;;;;;;;;;;6.70;97.70;;;;;;5029361;28;19909;-76
2022/01/31 01:50:58;;;;;;;;;;;6.70;97.70;;;;;;5029312;28;19908;-76
2022/01/31 01:53:25;;;;;;;;;;;6.60;97.70;;;;;;5029439;28;19921;-76
2022/01/31 01:55:52;;;;;;;;;;;6.60;97.80;;;;;;5029381;28;19905;-76
2022/01/31 01:58:18;;;;;;;;;;;6.60;97.80;;;;;;5012064;28;19910;-76
2022/01/31 02:00:58;;;;;;;;;;;6.50;97.70;;;;;;5029256;28;19923;-76
2022/01/31 02:03:24;;;;;;;;;;;6.50;97.70;;;;;;5029273;28;19955;-76
2022/01/31 02:05:50;;;;;;;;;;;6.50;97.80;;;;;;5011464;28;19905;-76
2022/01/31 02:08:19;;;;;;;;;;;6.50;97.80;;;;;;5029236;28;19916;-76
2022/01/31 02:10:45;;;;;;;;;;;6.50;97.80;;;;;;5011303;28;19917;-76
2022/01/31 02:13:11;;;;;;;;;;;6.50;97.70;;;;;;5028975;28;20276;-76
2022/01/31 02:15:38;;;;;;;;;;;6.50;97.70;;;;;;5029024;28;19909;-76
2022/01/31 02:18:04;;;;;;;;;;;6.50;97.80;;;;;;5029068;28;19905;-75
2022/01/31 02:20:30;;;;;;;;;;;6.40;97.80;;;;;;5011183;28;20267;-76
2022/01/31 02:22:56;;;;;;;;;;;6.50;97.90;;;;;;5028932;28;19916;-76
2022/01/31 02:25:22;;;;;;;;;;;6.60;98.00;;;;;;5011082;28;19905;-76
2022/01/31 02:27:48;;;;;;;;;;;6.70;98.00;;;;;;5007488;28;19929;-76
2022/01/31 02:30:14;;;;;;;;;;;6.80;97.90;;;;;;5008560;28;20048;-75
2022/01/31 02:32:40;;;;;;;;;;;6.90;97.90;;;;;;5009100;28;19905;-76
2022/01/31 02:35:06;;;;;;;;;;;7.00;97.80;;;;;;5008898;28;19906;-76
2022/01/31 02:37:32;;;;;;;;;;;7.10;97.80;;;;;;5009116;28;20000;-75
2022/01/31 02:39:58;;;;;;;;;;;7.10;97.70;;;;;;5008911;28;19913;-76
2022/01/31 02:42:23;;;;;;;;;;;7.10;97.70;;;;;;5008873;28;20382;-76
2022/01/31 02:44:49;;;;;;;;;;;7.10;97.60;;;;;;5007370;28;19986;-76
2022/01/31 02:47:21;;;;;;;;;;;7.00;97.60;;;;;;5008829;28;19913;-76
2022/01/31 02:49:56;;;;;;;;;;;6.90;97.50;;;;;;5008741;28;19916;-76
2022/01/31 02:52:23;;;;;;;;;;;6.80;97.70;;;;;;5008739;28;19956;-76
2022/01/31 02:54:49;;;;;;;;;;;6.70;97.70;;;;;;5007308;28;19913;-76
2022/01/31 02:57:14;;;;;;;;;;;6.60;97.80;;;;;;5008807;28;19948;-76
2022/01/31 02:59:40;;;;;;;;;;;6.60;98.00;;;;;;5008715;28;20000;-76
2022/01/31 03:02:05;;;;;;;;;;;6.60;98.00;;;;;;5007194;28;20013;-76
2022/01/31 03:04:31;;;;;;;;;;;6.70;98.10;;;;;;5007265;28;19924;-75
2022/01/31 03:06:57;;;;;;;;;;;6.80;98.10;;;;;;5008586;28;20352;-75
2022/01/31 03:09:22;;;;;;;;;;;6.80;98.10;;;;;;4990856;28;19949;-76
2022/01/31 03:11:48;;;;;;;;;;;6.80;98.00;;;;;;5008500;28;20343;-76
2022/01/31 03:14:18;;;;;;;;;;;6.80;97.90;;;;;;5007235;28;19968;-76
2022/01/31 03:16:45;;;;;;;;;;;6.80;97.80;;;;;;5008425;28;19960;-76
2022/01/31 03:19:11;;;;;;;;;;;6.70;97.80;;;;;;5008326;28;19905;-75
2022/01/31 03:21:37;;;;;;;;;;;6.60;97.80;;;;;;5006955;28;19909;-76
2022/01/31 03:24:03;;;;;;;;;;;6.50;97.80;;;;;;5006901;28;20012;-76
2022/01/31 03:26:28;;;;;;;;;;;6.50;97.90;;;;;;5008380;28;20216;-76
2022/01/31 03:28:54;;;;;;;;;;;6.40;97.90;;;;;;5027151;28;19928;-76
2022/01/31 03:31:23;;;;;;;;;;;6.40;98.00;;;;;;5028103;28;20399;-76
2022/01/31 03:33:49;;;;;;;;;;;6.30;98.00;;;;;;5010241;28;20299;-76
2022/01/31 03:36:14;;;;;;;;;;;6.30;98.00;;;;;;5027972;28;20129;-76
2022/01/31 03:38:41;;;;;;;;;;;6.30;98.10;;;;;;5027880;28;20362;-76
2022/01/31 03:41:14;;;;;;;;;;;6.20;98.00;;;;;;5029245;28;19920;-76
2022/01/31 03:43:39;;;;;;;;;;;6.20;98.00;;;;;;5031773;28;20296;-76
2022/01/31 03:46:05;;;;;;;;;;;6.30;98.20;;;;;;5031903;28;19908;-76
2022/01/31 03:48:31;;;;;;;;;;;6.30;98.40;;;;;;5013926;28;19931;-76
2022/01/31 03:50:57;;;;;;;;;;;6.40;98.40;;;;;;5031730;28;20367;-76
2022/01/31 03:53:23;;;;;;;;;;;6.60;98.40;;;;;;5031701;28;20332;-76
2022/01/31 03:55:48;;;;;;;;;;;6.70;98.30;;;;;;5031605;28;19905;-76
2022/01/31 03:58:14;;;;;;;;;;;6.80;98.40;;;;;;5031686;28;19909;-76
2022/01/31 04:00:40;;;;;;;;;;;6.90;98.10;;;;;;5031524;28;19932;-76
2022/01/31 04:03:05;;;;;;;;;;;6.90;98.10;;;;;;5031711;28;20360;-76
2022/01/31 04:05:31;;;;;;;;;;;7.00;98.00;;;;;;5013766;28;19916;-76
2022/01/31 04:08:00;;;;;;;;;;;7.00;97.90;;;;;;5031456;28;19912;-76
2022/01/31 04:10:26;;;;;;;;;;;7.00;97.90;;;;;;5031453;28;19909;-77
2022/01/31 04:12:52;;;;;;;;;;;7.00;97.90;;;;;;5013591;28;19913;-76
2022/01/31 04:15:17;;;;;;;;;;;7.00;97.80;;;;;;5013681;28;20046;-76
2022/01/31 04:17:43;;;;;;;;;;;7.00;97.70;;;;;;5031311;28;19905;-76
2022/01/31 04:20:09;;;;;;;;;;;6.90;97.70;;;;;;5031200;28;20282;-76
2022/01/31 04:22:40;;;;;;;;;;;6.80;97.70;;;;;;5013535;28;19913;-76
2022/01/31 04:25:13;;;;;;;;;;;6.70;97.80;;;;;;5031125;28;19909;-76
2022/01/31 04:27:45;;;;;;;;;;;6.70;97.90;;;;;;5014345;28;19943;-76
2022/01/31 04:30:12;;;;;;;;;;;6.70;98.00;;;;;;4997797;28;19920;-76
2022/01/31 04:32:38;;;;;;;;;;;6.60;97.90;;;;;;5031041;28;19949;-76
2022/01/31 04:35:04;;;;;;;;;;;6.50;97.80;;;;;;5030918;28;19976;-76
2022/01/31 04:37:29;;;;;;;;;;;6.50;97.90;;;;;;5013137;28;19924;-76
2022/01/31 04:39:55;;;;;;;;;;;6.40;98.00;;;;;;5030832;28;19909;-76
2022/01/31 04:42:21;;;;;;;;;;;6.40;98.00;;;;;;5031154;28;19911;-76
2022/01/31 04:44:48;;;;;;;;;;;6.30;98.10;;;;;;5013237;28;19996;-76
2022/01/31 04:47:13;;;;;;;;;;;6.30;98.20;;;;;;5030714;28;20117;-76
2022/01/31 04:49:39;;;;;;;;;;;6.40;98.30;;;;;;5030576;28;19915;-76
2022/01/31 04:52:05;;;;;;;;;;;6.50;98.40;;;;;;5012442;28;20300;-76
2022/01/31 04:54:30;;;;;;;;;;;6.60;98.40;;;;;;5030498;28;19984;-76
2022/01/31 04:56:56;;;;;;;;;;;6.70;98.40;;;;;;5030547;28;19980;-76
2022/01/31 04:59:22;;;;;;;;;;;6.80;98.40;;;;;;5012639;28;19913;-76
2022/01/31 05:01:48;;;;;;;;;;;6.80;98.20;;;;;;5030246;28;19908;-76
2022/01/31 05:04:14;;;;;;;;;;;6.90;98.20;;;;;;5030126;28;20362;-76
2022/01/31 05:06:42;;;;;;;;;;;6.90;98.20;;;;;;5030237;28;20008;-76
2022/01/31 05:09:09;;;;;;;;;;;6.90;98.10;;;;;;5030512;28;19905;-76
2022/01/31 05:11:35;;;;;;;;;;;6.90;98.10;;;;;;5030344;28;19905;-76
2022/01/31 05:14:01;;;;;;;;;;;6.90;98.00;;;;;;5030235;28;19912;-76
2022/01/31 05:16:26;;;;;;;;;;;6.90;98.10;;;;;;5030189;28;20347;-76
2022/01/31 05:18:52;;;;;;;;;;;6.90;98.10;;;;;;5012484;28;20382;-76
2022/01/31 05:21:18;;;;;;;;;;;7.00;98.20;;;;;;5030015;28;19916;-76
2022/01/31 05:23:44;;;;;;;;;;;7.00;98.20;;;;;;5012378;28;19912;-76
2022/01/31 05:26:10;;;;;;;;;;;7.00;98.20;;;;;;5030089;28;19908;-75
2022/01/31 05:28:35;;;;;;;;;;;7.10;98.20;;;;;;5030254;28;19929;-76
2022/01/31 05:31:01;;;;;;;;;;;7.10;98.10;;;;;;5029851;28;20007;-76
2022/01/31 05:33:27;;;;;;;;;;;7.10;98.10;;;;;;5029795;28;19905;-76
2022/01/31 05:35:53;;;;;;;;;;;7.10;98.00;;;;;;5011932;28;20011;-76
2022/01/31 05:38:18;;;;;;;;;;;7.00;97.80;;;;;;5029779;28;19909;-76
2022/01/31 05:40:44;;;;;;;;;;;6.90;97.70;;;;;;5011905;28;19916;-76
2022/01/31 05:43:09;;;;;;;;;;;6.80;97.70;;;;;;5029592;28;20359;-76
2022/01/31 05:45:35;;;;;;;;;;;6.70;97.80;;;;;;4995441;28;19912;-75
2022/01/31 05:48:00;;;;;;;;;;;6.60;97.90;;;;;;5029688;28;19909;-76
2022/01/31 05:50:26;;;;;;;;;;;6.50;97.90;;;;;;5011881;28;19951;-76
2022/01/31 05:52:51;;;;;;;;;;;6.40;98.00;;;;;;5029462;28;19917;-76
2022/01/31 05:55:17;;;;;;;;;;;6.40;98.00;;;;;;5029285;28;19920;-76
2022/01/31 05:57:43;;;;;;;;;;;6.30;98.10;;;;;;5011702;28;19905;-76
2022/01/31 06:00:09;;;;;;;;;;;6.30;98.10;;;;;;5029287;28;19920;-76
2022/01/31 06:02:39;;;;;;;;;;;6.20;98.10;;;;;;5029231;28;19950;-76
2022/01/31 06:05:04;;;;;;;;;;;6.10;98.10;;;;;;5011242;28;19936;-76
2022/01/31 06:07:30;;;;;;;;;;;6.10;98.10;;;;;;5011276;28;20343;-76
2022/01/31 06:09:56;;;;;;;;;;;6.10;98.20;;;;;;5029226;28;19909;-76
2022/01/31 06:12:22;;;;;;;;;;;6.10;98.30;;;;;;5011527;28;19909;-76
2022/01/31 06:14:47;;;;;;;;;;;6.10;98.40;;;;;;4995082;28;20260;-75
2022/01/31 06:17:13;;;;;;;;;;;6.20;98.40;;;;;;5028908;28;19909;-76
2022/01/31 06:19:39;;;;;;;;;;;6.20;98.50;;;;;;5029053;28;20340;-75
2022/01/31 06:22:04;;;;;;;;;;;6.20;98.40;;;;;;5028857;28;20449;-76
2022/01/31 06:24:30;;;;;;;;;;;6.20;98.50;;;;;;5028869;28;19912;-76
2022/01/31 06:26:58;;;;;;;;;;;6.30;98.50;;;;;;5028648;28;20330;-76
2022/01/31 06:29:23;;;;;;;;;;;6.40;98.50;;;;;;5010991;28;19905;-76
2022/01/31 06:31:49;;;;;;;;;;;6.40;98.50;;;;;;5010854;28;20378;-76
2022/01/31 06:34:17;;;;;;;;;;;6.50;98.50;;;;;;5028676;28;20310;-76
2022/01/31 06:36:43;;;;;;;;;;;6.60;98.40;;;;;;5028708;28;19909;-76
2022/01/31 06:39:08;;;;;;;;;;;6.60;98.40;;;;;;5028566;28;20012;-76
2022/01/31 06:41:34;;;;;;;;;;;6.60;98.30;;;;;;5028341;28;19913;-76
2022/01/31 06:43:59;;;;;;;;;;;6.60;98.20;;;;;;5010711;28;19913;-76
2022/01/31 06:46:25;;;;;;;;;;;6.60;98.10;;;;;;5028420;28;19905;-76
2022/01/31 06:48:50;;;;;;;;;;;6.60;98.10;;;;;;5028403;28;20275;-76
2022/01/31 06:51:17;;;;;;;;;;;6.60;98.10;;;;;;5028304;28;20281;-76
2022/01/31 06:53:47;;;;;;;;;;;6.50;98.00;;;;;;5028113;28;19911;-76
2022/01/31 06:56:13;;;;;;;;;;;6.50;98.00;;;;;;5010548;28;19913;-76
2022/01/31 06:58:39;;;;;;;;;;;6.40;98.00;;;;;;5028252;28;20382;-76
2022/01/31 07:01:04;;;;;;;;;;;6.30;98.10;;;;;;5028133;28;19917;-76
2022/01/31 07:03:30;;;;;;;;;;;6.30;98.20;;;;;;5028064;28;19909;-76
2022/01/31 07:05:55;;;;;;;;;;;6.40;98.30;;;;;;5028176;28;19909;-76
2022/01/31 07:08:22;;;;;;;;;;;6.40;98.30;;;;;;5028009;28;19917;-76
2022/01/31 07:10:52;;;;;;;;;;;6.40;98.30;;;;;;5028087;28;19963;-76
2022/01/31 07:13:35;;;;;;;;;;;6.40;98.30;;;;;;5028041;28;19952;-75
2022/01/31 07:16:01;;;;;;;;;;;6.40;98.20;;;;;;5027772;28;19912;-75
2022/01/31 07:18:26;;;;;;;;;;;6.30;98.20;;;;;;5027871;28;19963;-75
2022/01/31 07:20:53;;;;;;;;;;;6.30;98.20;;;;;;5027794;28;20073;-75
2022/01/31 07:24:06;;;;;;;;;;;6.30;98.30;;;;;;5010204;28;19971;-75
2022/01/31 07:26:07;;;;;;;;;;;6.30;98.40;;;;;;5016511;28;19913;-75
2022/01/31 07:28:33;;;;;;;;;;;6.30;98.30;;;;;;5027239;28;20391;-76
2022/01/31 07:30:58;;;;;;;;;;;6.30;98.20;;;;;;5028416;28;20252;-75
2022/01/31 07:33:24;;;;;;;;;;;6.20;98.20;;;;;;5029452;28;19920;-75
2022/01/31 07:35:50;;;;;;;;;;;6.10;98.30;;;;;;5029295;28;19951;-75
2022/01/31 07:38:16;;;;;;;;;;;6.10;98.30;;;;;;5027682;28;19909;-75
2022/01/31 07:40:42;;;;;;;;;;;6.10;98.40;;;;;;5010007;28;19920;-76
2022/01/31 07:43:07;;;;;;;;;;;6.00;98.40;;;;;;5027622;28;19911;-76
2022/01/31 07:45:33;;;;;;;;;;;6.00;98.50;;;;;;5027513;28;19920;-76
2022/01/31 07:47:59;;;;;;;;;;;6.10;98.70;;;;;;5009761;28;20008;-76
2022/01/31 07:50:25;;;;;;;;;;;6.20;98.70;;;;;;5009804;28;20015;-76
2022/01/31 07:52:50;;;;;;;;;;;6.30;98.70;;;;;;5010024;28;20372;-75
2022/01/31 07:55:16;;;;;;;;;;;6.40;98.70;;;;;;5009582;28;19916;-76
2022/01/31 07:57:43;;;;;;;;;;;6.50;98.60;;;;;;5027452;28;19912;-76
2022/01/31 08:00:09;;;;;;;;;;;6.60;98.60;;;;;;5027518;28;19976;-75
2022/01/31 08:02:35;;;;;;;;;;;6.60;98.50;;;;;;5009647;28;20331;-76
2022/01/31 08:05:01;;;;;;;;;;;6.60;98.50;;;;;;5009551;28;19913;-76
2022/01/31 08:07:26;;;;;;;;;;;6.70;98.50;;;;;;5027063;28;19913;-77
2022/01/31 08:09:52;;;;;;;;;;;6.60;98.30;;;;;;5027403;28;19909;-74
2022/01/31 08:12:17;;;;;;;;;;;6.60;98.30;;;;;;5027701;28;20279;-77
2022/01/31 08:14:45;;;;;;;;;;;6.50;98.20;;;;;;5027394;28;19914;-74
2022/01/31 08:17:10;;;;;;;;;;;6.50;98.30;;;;;;5027524;28;19940;-76
2022/01/31 08:19:36;;;;;;;;;;;6.40;98.30;;;;;;5027572;28;20324;-76
2022/01/31 08:22:01;;;;;;;;;;;6.40;98.30;;;;;;5026971;28;20043;-76
2022/01/31 08:24:27;;;;;;;;;;;6.30;98.40;;;;;;5026944;28;19920;-77
2022/01/31 08:26:53;;;;;;;;;;;6.30;98.40;;;;;;5027827;28;19990;-76
2022/01/31 08:29:26;;;;;;;;;;;6.20;98.40;;;;;;5030663;28;20539;-76
2022/01/31 08:31:52;;;;;;;;;;;6.20;98.50;;;;;;5013746;28;20329;-75
2022/01/31 08:34:23;;;;;;;;;;;6.20;98.50;;;;;;5030548;28;20016;-75
2022/01/31 08:36:49;;;;;;;;;;;6.20;98.60;;;;;;5030992;28;19952;-75
2022/01/31 08:39:17;;;;;;;;;;;6.10;98.60;;;;;;5012671;28;20349;-75
2022/01/31 08:41:44;;;;;;;;;;;6.20;98.70;;;;;;5012601;28;20004;-75
2022/01/31 08:44:14;;;;;;;;;;;6.20;98.70;;;;;;5030454;28;20401;-75
2022/01/31 08:46:40;;;;;;;;;;;6.30;98.90;;;;;;5030358;28;19916;-75
2022/01/31 08:49:07;;;;;;;;;;;6.40;98.90;;;;;;5030380;28;20321;-74
2022/01/31 08:51:33;;;;;;;;;;;6.50;98.90;;;;;;5030133;28;20207;-76
2022/01/31 08:53:58;;;;;;;;;;;6.50;98.80;;;;;;5029985;28;19990;-75
2022/01/31 08:56:24;;;;;;;;;;;6.50;98.70;;;;;;5030067;28;20367;-76
2022/01/31 08:58:50;;;;;;;;;;;6.60;98.70;;;;;;5029593;28;19909;-75
2022/01/31 09:01:18;;;;;;;;;;;6.70;98.70;;;;;;5029466;28;19913;-75
2022/01/31 09:04:00;;;;;;;;;;;6.70;98.70;;;;;;5011232;28;19917;-75
2022/01/31 09:06:27;;;;;;;;;;;6.80;98.70;;;;;;5013918;28;19931;-75
2022/01/31 09:08:53;;;;;;;;;;;6.80;98.70;;;;;;5029563;28;20235;-74
2022/01/31 09:11:19;;;;;;;;;;;6.90;98.70;;;;;;5029178;28;19916;-75
2022/01/31 09:13:44;;;;;;;;;;;7.00;98.70;;;;;;5011063;28;20370;-74
2022/01/31 09:16:10;;;;;;;;;;;7.10;98.70;;;;;;4995672;28;20279;-75
2022/01/31 09:18:36;;;;;;;;;;;7.10;98.70;;;;;;5029621;28;19908;-75
2022/01/31 09:21:02;;;;;;;;;;;7.20;98.70;;;;;;5011230;28;19958;-74
2022/01/31 09:23:28;;;;;;;;;;;7.30;98.70;;;;;;5029592;28;19905;-75
2022/01/31 09:25:55;;;;;;;;;;;7.40;98.70;;;;;;5011655;28;20004;-76
2022/01/31 09:28:20;;;;;;;;;;;7.50;98.70;;;;;;5028539;28;19932;-76
2022/01/31 09:30:46;;;;;;;;;;;7.60;98.90;;;;;;5029613;28;19922;-76
2022/01/31 09:33:12;;;;;;;;;;;8.00;99.60;;;;;;5028764;28;19928;-76
2022/01/31 09:35:38;;;;;;;;;;;8.60;99.90;;;;;;5028909;28;19913;-76
2022/01/31 09:38:04;;;;;;;;;;;9.30;99.70;;;;;;5011195;28;19983;-76
2022/01/31 09:40:30;;;;;;;;;;;9.90;99.50;;;;;;5029409;28;19987;-76
2022/01/31 09:43:03;;;;;;;;;;;10.50;99.00;;;;;;5030467;28;19916;-77
2022/01/31 09:48:36;;;;;;;;;;;11.50;98.50;;;;;;5017134;28;20428;-76
2022/01/31 09:51:03;;;;;;;;;;;12.00;98.00;;;;;;5030276;28;20020;-77
2022/01/31 09:53:34;;;;;;;;;;;12.20;97.50;;;;;;5030532;28;19909;-77
2022/01/31 09:55:59;;;;;;;;;;;12.50;97.50;;;;;;5028779;28;20283;-77
2022/01/31 09:58:29;;;;;;;;;;;13.00;97.60;;;;;;5030193;28;19913;-77
2022/01/31 10:01:21;;;;;;;;;;;13.50;97.60;;;;;;5030238;28;20034;-76
2022/01/31 10:03:51;;;;;;;;;;;13.90;97.00;;;;;;5027372;28;20015;-77
2022/01/31 10:06:22;;;;;;;;;;;14.40;96.50;;;;;;5029561;28;20323;-77
2022/01/31 10:08:48;;;;;;;;;;;14.50;95.60;;;;;;5011772;28;20058;-77
2022/01/31 10:11:27;;;;;;;;;;;14.70;95.80;;;;;;5029393;28;19963;-77
2022/01/31 10:16:43;;;;;;;;;;;15.00;95.00;;;;;;5029229;28;19959;-77
2022/01/31 10:19:09;;;;;;;;;;;15.40;94.70;;;;;;5028917;28;19905;-77
2022/01/31 10:21:55;;;;;;;;;;;15.80;95.20;;;;;;5029018;28;19913;-75
2022/01/31 10:24:21;;;;;;;;;;;15.60;93.80;;;;;;5028010;28;20279;-75
2022/01/31 10:26:47;;;;;;;;;;;14.90;92.20;;;;;;5028105;28;19928;-75
2022/01/31 10:29:14;;;;;;;;;;;14.00;91.90;;;;;;5010510;28;20430;-74
2022/01/31 10:31:54;;;;;;;;;;;13.30;92.50;;;;;;5028226;28;19909;-75
2022/01/31 10:34:23;;;;;;;;;;;12.70;93.10;;;;;;5028466;28;19911;-75
2022/01/31 10:36:51;;;;;;;;;;;12.30;93.40;;;;;;5010595;28;19917;-75
2022/01/31 10:54:26;;;;;;;;;;;11.80;95.50;;;;;;5010122;28;20300;-76
2022/01/31 10:56:53;;;;;;;;;;;12.90;95.60;;;;;;5011425;28;19944;-74
2022/01/31 10:59:19;;;;;;;;;;;14.10;95.30;;;;;;5010782;28;20008;-70
2022/01/31 11:01:46;;;;;;;;;;;14.80;94.40;;;;;;5029095;28;19913;-77
2022/01/31 11:04:14;;;;;;;;;;;15.40;94.70;;;;;;5029469;28;19952;-78
2022/01/31 11:06:41;;;;;;;;;;;16.00;94.40;;;;;;5029942;28;19905;-77
2022/01/31 11:09:09;;;;;;;;;;;16.40;94.10;;;;;;5029424;28;19992;-77
2022/01/31 11:11:36;;;;;;;;;;;16.90;94.10;;;;;;5029103;28;19905;-77
2022/01/31 11:14:03;;;;;;;;;;;17.30;94.10;;;;;;5026255;28;19913;-77
2022/01/31 11:16:29;;;;;;;;;;;17.70;93.20;;;;;;5029066;28;19905;-77
2022/01/31 11:19:01;;;;;;;;;;;17.80;91.60;;;;;;5009725;28;20350;-77
2022/01/31 11:21:30;;;;;;;;;;;17.50;90.70;;;;;;5008406;28;19948;-77
2022/01/31 11:24:01;;;;;;;;;;;17.30;90.80;;;;;;5028269;28;19932;-77
2022/01/31 11:26:27;;;;;;;;;;;17.20;91.20;;;;;;5026444;28;19905;-76
2022/01/31 11:28:54;;;;;;;;;;;17.40;91.90;;;;;;5027973;28;19917;-76
2022/01/31 11:31:20;;;;;;;;;;;17.30;91.30;;;;;;5010227;28;19905;-78
2022/01/31 11:33:45;;;;;;;;;;;17.10;91.00;;;;;;5010971;28;19959;-75
2022/01/31 11:36:11;;;;;;;;;;;16.70;91.00;;;;;;5027895;28;19916;-76
2022/01/31 11:38:39;;;;;;;;;;;16.40;91.20;;;;;;5028620;28;19939;-77
2022/01/31 11:41:05;;;;;;;;;;;16.00;91.40;;;;;;5010745;28;19909;-77
2022/01/31 11:43:32;;;;;;;;;;;15.60;91.30;;;;;;5028833;28;19905;-76
2022/01/31 11:45:59;;;;;;;;;;;15.20;91.50;;;;;;5028192;28;19924;-77
2022/01/31 11:48:25;;;;;;;;;;;14.80;91.50;;;;;;5028761;28;20343;-77
2022/01/31 11:50:55;;;;;;;;;;;14.50;91.40;;;;;;5010270;28;20301;-77
2022/01/31 11:53:31;;;;;;;;;;;14.30;91.60;;;;;;5027876;28;20398;-77
2022/01/31 11:56:07;;;;;;;;;;;14.30;92.20;;;;;;5028375;28;19905;-77
2022/01/31 11:58:42;;;;;;;;;;;14.70;92.50;;;;;;5027593;28;19912;-77
2022/01/31 12:01:08;;;;;;;;;;;15.10;92.10;;;;;;5028727;28;20306;-76
2022/01/31 12:03:35;;;;;;;;;;;15.10;91.50;;;;;;5032486;28;20308;-76
2022/01/31 12:06:19;;;;;;;;;;;14.80;90.90;;;;;;5031923;28;19913;-77
2022/01/31 12:08:45;;;;;;;;;;;14.40;90.80;;;;;;5015062;28;19905;-79
2022/01/31 12:11:15;;;;;;;;;;;14.00;90.70;;;;;;5016974;28;19912;-77
2022/01/31 12:13:43;;;;;;;;;;;13.70;90.60;;;;;;5014773;28;20275;-77
2022/01/31 12:16:30;;;;;;;;;;;13.40;90.80;;;;;;5014716;28;19904;-79
2022/01/31 12:19:34;;;;;;;;;;;13.10;90.90;;;;;;5017108;28;19984;-79
2022/01/31 12:22:00;;;;;;;;;;;12.90;90.90;;;;;;5030762;28;19919;-78
2022/01/31 12:24:27;;;;;;;;;;;12.70;91.10;;;;;;5010297;28;20004;-79
2022/01/31 12:26:54;;;;;;;;;;;12.70;91.30;;;;;;5032466;28;19972;-78
2022/01/31 12:29:22;;;;;;;;;;;12.70;91.40;;;;;;5014794;28;20416;-77
2022/01/31 12:31:52;;;;;;;;;;;12.70;91.30;;;;;;5030736;28;19968;-75
2022/01/31 12:34:20;;;;;;;;;;;12.70;91.30;;;;;;5030840;28;19983;-75
2022/01/31 12:37:09;;;;;;;;;;;12.70;91.20;;;;;;5014209;28;19993;-79
2022/01/31 12:39:40;;;;;;;;;;;12.60;91.20;;;;;;5026914;28;19912;-78
2022/01/31 12:42:41;;;;;;;;;;;12.50;91.20;;;;;;5032982;28;20002;-76
2022/01/31 12:45:07;;;;;;;;;;;12.50;91.10;;;;;;5029022;28;19912;-78
2022/01/31 12:47:33;;;;;;;;;;;12.30;90.90;;;;;;5014702;28;20587;-77
2022/01/31 12:50:17;;;;;;;;;;;12.20;91.10;;;;;;5014545;28;19913;-78
2022/01/31 12:52:43;;;;;;;;;;;12.10;91.20;;;;;;5032414;28;19909;-78
2022/01/31 12:55:09;;;;;;;;;;;12.00;91.30;;;;;;5031974;28;19909;-77
2022/01/31 12:57:45;;;;;;;;;;;11.90;91.20;;;;;;5031829;28;19995;-77
2022/01/31 13:00:11;;;;;;;;;;;11.90;91.20;;;;;;5031641;28;20247;-77
2022/01/31 13:02:46;;;;;;;;;;;11.70;91.20;;;;;;5031982;28;19917;-79
2022/01/31 13:05:12;;;;;;;;;;;11.70;91.30;;;;;;5013726;28;19912;-81
2022/01/31 13:07:38;;;;;;;;;;;11.60;91.20;;;;;;5014892;28;20289;-81
2022/01/31 13:10:10;;;;;;;;;;;11.50;91.20;;;;;;5013843;28;20020;-71
2022/01/31 13:12:36;;;;;;;;;;;11.40;91.30;;;;;;5030553;28;19957;-78
2022/01/31 13:15:03;;;;;;;;;;;11.30;91.40;;;;;;5031293;28;20010;-78
2022/01/31 13:17:29;;;;;;;;;;;11.20;91.50;;;;;;5012993;28;19928;-77
2022/01/31 13:19:59;;;;;;;;;;;11.20;91.50;;;;;;4996844;28;19909;-76
2022/01/31 13:22:32;;;;;;;;;;;11.10;91.60;;;;;;5013660;28;20374;-77
2022/01/31 13:24:59;;;;;;;;;;;11.10;91.60;;;;;;5013225;28;19928;-78
2022/01/31 13:27:33;;;;;;;;;;;11.00;91.60;;;;;;5031448;28;19936;-78
2022/01/31 13:30:00;;;;;;;;;;;11.00;91.80;;;;;;4996741;28;20012;-76
2022/01/31 13:32:29;;;;;;;;;;;11.00;91.90;;;;;;5030176;28;20004;-77
2022/01/31 13:34:56;;;;;;;;;;;10.90;91.90;;;;;;5030901;28;19928;-76
2022/01/31 13:37:40;;;;;;;;;;;11.00;92.00;;;;;;5031109;28;19915;-77
2022/01/31 13:40:10;;;;;;;;;;;11.00;92.00;;;;;;5031636;28;20270;-79
2022/01/31 13:42:41;;;;;;;;;;;11.10;92.10;;;;;;5012952;28;19916;-79
2022/01/31 13:45:13;;;;;;;;;;;11.10;92.10;;;;;;5030953;28;19905;-77
2022/01/31 13:47:48;;;;;;;;;;;11.10;92.10;;;;;;5031272;28;20359;-76
2022/01/31 13:50:17;;;;;;;;;;;11.20;92.20;;;;;;5013506;28;19919;-76
2022/01/31 13:52:56;;;;;;;;;;;11.20;92.20;;;;;;5030980;28;19984;-76
2022/01/31 13:55:22;;;;;;;;;;;11.20;92.10;;;;;;5030718;28;19955;-79
2022/01/31 13:57:48;;;;;;;;;;;11.30;92.20;;;;;;5013456;28;20297;-78
2022/01/31 14:00:14;;;;;;;;;;;11.30;92.20;;;;;;5030804;28;19944;-77
2022/01/31 14:02:40;;;;;;;;;;;11.20;92.20;;;;;;5012603;28;19913;-75
2022/01/31 14:05:19;;;;;;;;;;;11.20;92.20;;;;;;5030647;28;19916;-76
2022/01/31 14:07:45;;;;;;;;;;;11.20;92.20;;;;;;5013073;28;19916;-77
2022/01/31 14:10:24;;;;;;;;;;;11.20;92.20;;;;;;5013402;28;20011;-78
2022/01/31 14:13:03;;;;;;;;;;;11.20;92.20;;;;;;5030611;28;19905;-77
2022/01/31 14:15:28;;;;;;;;;;;11.20;92.30;;;;;;5030409;28;19905;-77
2022/01/31 14:17:54;;;;;;;;;;;11.20;92.40;;;;;;5030529;28;19911;-78
2022/01/31 14:20:20;;;;;;;;;;;11.20;92.30;;;;;;5030534;28;19975;-77
2022/01/31 14:22:54;;;;;;;;;;;11.20;92.40;;;;;;5030302;28;19920;-77
2022/01/31 14:25:19;;;;;;;;;;;11.20;92.40;;;;;;5029777;28;19947;-77
2022/01/31 14:27:51;;;;;;;;;;;11.20;92.40;;;;;;5029779;28;19961;-76
2022/01/31 14:30:21;;;;;;;;;;;11.30;92.40;;;;;;5012355;28;20343;-78
2022/01/31 14:33:19;;;;;;;;;;;11.30;92.40;;;;;;5012031;28;19905;-77
2022/01/31 14:35:44;;;;;;;;;;;11.30;92.50;;;;;;4989214;28;19916;-73
2022/01/31 14:38:14;;;;;;;;;;;11.30;92.50;;;;;;5011997;28;19909;-78
2022/01/31 14:49:04;;;;;;;;;;;11.30;92.50;;;;;;5027238;28;19933;-78
2022/01/31 14:51:31;;;;;;;;;;;11.30;92.60;;;;;;5011954;28;19912;-79
2022/01/31 14:54:05;;;;;;;;;;;11.30;92.60;;;;;;5011602;28;19912;-78
2022/01/31 14:56:31;;;;;;;;;;;11.20;92.60;;;;;;5029108;28;19964;-77
2022/01/31 14:59:01;;;;;;;;;;;11.20;92.60;;;;;;5028914;28;19916;-77